Stone Creek, OH (43840)

4:34 PM EST on January 30, 2015 (GMT -0500)
APRSWXNET New Philadelphia OH US | Change Station
CLOSE
Current Station
Personal Weather Station
Location: New Philadelphia, OH
Elevation: 987 ft
Nearby Weather Stations
Active Advisory: Winter Storm Watch Active Notice: Public Information Statement

Elev 987 ft 40.48 °N, 81.48 °W | Updated 35 minutes ago

Overcast
Overcast
18 °F
Feels Like 18 °F
N
3
Wind Variable Wind from West
Gusts 7.0 mph

Today
High -- | Low -- °F
--% Chance of Precip.
Yesterday
High -- | Low -- °F
Precip. -- in
7:37 AM 5:42 PM
Waxing Gibbous, 85% visible
Pressure 30.42 in
Visibility 6.0 miles
Clouds Scattered Clouds 2100 ft
Scattered Clouds 2700 ft
Overcast 3300 ft
Windchill 18 °F
Dew Point 9 °F
Humidity 67%
Rainfall 0.01 in
Snow Depth Not available.
UV 0 out of 12
Pollen .10 out of 12
Air Quality Not available.
Flu Activity Not available.
SPECI KPHD 302130Z AUTO 32009KT 6SM -SN SCT021 SCT027 OVC033 M08/M14 A3042 RMK AO2 SNB2056 P0000 T10831139

More Conditions Fewer Conditions

Pressure 30.42 in
Visibility 6.0 miles
Clouds Scattered Clouds 2100 ft
Scattered Clouds 2700 ft
Overcast 3300 ft
Windchill 18 °F
Dew Point 9 °F
Humidity 67%
Rainfall 0.01 in
Snow Depth Not available.
UV 0 out of 12
Pollen .10 out of 12
Air Quality Not available.
Flu Activity Not available.
SPECI KPHD 302130Z AUTO 32009KT 6SM -SN SCT021 SCT027 OVC033 M08/M14 A3042 RMK AO2 SNB2056 P0000 T10831139

More Conditions Fewer Conditions

10-Day Weather Forecast

Almanac

Astronomy

Jan. 30, 2015 Rise Set
Actual Time
Civil Twilight
Nautical Twilight
Astronomical Twilight
Moon
Length of Visible Light
Length of Day
Tomorrow will be .
, % of the Moon is Illuminated

Today's Extremes

State Highs State Lows

Community

WunderPhotos

Upload Photos

1,791,897 photos uploaded!

WunderBlogs® & News

Nearby

Air Quality

  Air Quality AQ Index Pollutant
Not available.

Snow Depth

Station Depth Elevation

Earthquake Activity

City Distance Mag. Time & Date
Minimum magnitude displayed is 2.5.

Coastal Water Temperatures

Place Temperature

Nearby Weather Stations